createdAt,value
2019-05-19T00:01:12.413Z,3.67
2019-05-19T00:03:42.937Z,4.58
2019-05-19T00:06:13.558Z,3.60
2019-05-19T00:08:44.184Z,3.08
2019-05-19T00:11:14.888Z,3.52
2019-05-19T00:13:45.765Z,3.33
2019-05-19T00:16:16.314Z,3.58
2019-05-19T00:18:47.295Z,3.15
2019-05-19T00:21:18.042Z,2.98
2019-05-19T00:23:48.797Z,3.52
2019-05-19T00:26:19.737Z,3.27
2019-05-19T00:28:50.596Z,3.15
2019-05-19T00:31:21.272Z,3.45
2019-05-19T00:33:52.157Z,3.35
2019-05-19T00:36:23.800Z,3.10
2019-05-19T00:38:54.957Z,3.60
2019-05-19T00:41:25.675Z,3.55
2019-05-19T00:43:56.465Z,3.20
2019-05-19T00:46:27.422Z,3.77
2019-05-19T00:48:58.179Z,3.42
2019-05-19T00:51:29.325Z,2.90
2019-05-19T00:54:00.605Z,3.10
2019-05-19T00:56:33.117Z,3.20
2019-05-19T00:59:05.393Z,2.87
2019-05-19T01:01:35.876Z,2.70
2019-05-19T01:04:06.773Z,3.17
2019-05-19T01:06:37.861Z,3.20
2019-05-19T01:09:08.708Z,3.00
2019-05-19T01:11:39.444Z,2.60
2019-05-19T01:14:10.325Z,3.05
2019-05-19T01:16:41.284Z,2.67
2019-05-19T01:19:12.342Z,2.77
2019-05-19T01:21:44.799Z,2.52
2019-05-19T01:24:15.583Z,2.67
2019-05-19T01:26:46.339Z,2.30
2019-05-19T01:29:17.277Z,2.98
2019-05-19T01:31:47.828Z,2.50
2019-05-19T01:34:18.698Z,2.50
2019-05-19T01:36:50.733Z,2.85
2019-05-19T01:39:21.446Z,2.67
2019-05-19T01:41:52.275Z,2.80
2019-05-19T01:44:23.130Z,2.67
2019-05-19T01:46:53.891Z,2.98
2019-05-19T01:49:24.842Z,2.45
2019-05-19T01:51:55.925Z,2.50
2019-05-19T01:54:26.657Z,2.85
2019-05-19T01:56:57.614Z,2.80
2019-05-19T01:59:28.590Z,2.77
2019-05-19T02:01:59.245Z,2.45
2019-05-19T02:04:30.287Z,2.58
2019-05-19T02:07:01.040Z,2.50
2019-05-19T02:09:31.623Z,2.65
2019-05-19T02:12:02.258Z,3.10
2019-05-19T02:14:32.915Z,2.62
2019-05-19T02:17:03.449Z,2.67
2019-05-19T02:19:34.416Z,2.80
2019-05-19T02:22:06.093Z,3.00
2019-05-19T02:24:36.940Z,2.80
2019-05-19T02:27:07.482Z,2.45
2019-05-19T02:29:38.173Z,2.65
2019-05-19T02:32:09.003Z,1.85
2019-05-19T02:34:40.075Z,2.30
2019-05-19T02:37:11.972Z,2.42
2019-05-19T02:39:42.642Z,2.02
2019-05-19T02:42:16.724Z,2.17
2019-05-19T02:44:49.538Z,3.30
2019-05-19T02:47:22.307Z,2.40
2019-05-19T02:49:54.600Z,2.30
2019-05-19T02:52:27.315Z,1.87
2019-05-19T02:55:01.393Z,1.95
2019-05-19T02:57:33.399Z,2.17
2019-05-19T03:00:09.315Z,2.70
2019-05-19T03:02:40.269Z,1.75
2019-05-19T03:05:11.145Z,2.00
2019-05-19T03:07:41.845Z,2.42
2019-05-19T03:10:12.815Z,2.67
2019-05-19T03:12:43.857Z,2.10
2019-05-19T03:15:15.041Z,1.90
2019-05-19T03:17:45.976Z,1.80
2019-05-19T03:20:17.364Z,1.95
2019-05-19T03:22:48.508Z,1.98
2019-05-19T03:25:19.209Z,2.22
2019-05-19T03:27:50.088Z,2.17
2019-05-19T03:30:38.075Z,1.90
2019-05-19T03:33:10.707Z,1.80
2019-05-19T03:35:41.633Z,2.17
2019-05-19T03:38:12.439Z,2.12
2019-05-19T03:40:43.087Z,2.27
2019-05-19T03:43:13.745Z,1.98
2019-05-19T03:45:44.623Z,1.42
2019-05-19T03:48:15.710Z,2.50
2019-05-19T03:50:46.597Z,2.15
2019-05-19T03:53:18.213Z,2.22
2019-05-19T03:55:49.094Z,2.33
2019-05-19T03:58:20.081Z,1.98
2019-05-19T04:00:51.209Z,2.05
2019-05-19T04:03:22.067Z,2.17
2019-05-19T04:05:52.702Z,2.12
2019-05-19T04:08:23.487Z,2.50
2019-05-19T04:10:54.390Z,2.37
2019-05-19T04:13:25.059Z,2.45
2019-05-19T04:15:55.665Z,1.95
2019-05-19T04:18:26.256Z,2.42
2019-05-19T04:20:56.994Z,3.33
2019-05-19T04:23:27.537Z,2.65
2019-05-19T04:25:58.390Z,2.98
2019-05-19T04:28:29.197Z,2.90
2019-05-19T04:30:59.858Z,1.80
2019-05-19T04:33:30.654Z,2.90
2019-05-19T04:36:01.338Z,2.70
2019-05-19T04:38:31.971Z,2.15
2019-05-19T04:41:02.701Z,2.92
2019-05-19T04:43:33.240Z,2.10
2019-05-19T04:46:04.297Z,2.25
2019-05-19T04:48:35.029Z,2.02
2019-05-19T04:51:05.707Z,2.30
2019-05-19T04:53:36.323Z,2.72
2019-05-19T04:56:07.151Z,2.17
2019-05-19T04:58:38.139Z,2.75
2019-05-19T05:01:09.059Z,2.22
2019-05-19T05:03:39.763Z,2.50
2019-05-19T05:06:10.505Z,2.60
2019-05-19T05:08:41.236Z,2.47
2019-05-19T05:11:11.948Z,2.25
2019-05-19T05:13:42.604Z,1.87
2019-05-19T05:16:13.297Z,2.45
2019-05-19T05:18:43.766Z,1.92
2019-05-19T05:21:14.538Z,1.90
2019-05-19T05:23:45.371Z,2.05
2019-05-19T05:26:16.272Z,2.10
2019-05-19T05:28:46.979Z,2.60
2019-05-19T05:31:17.823Z,2.20
2019-05-19T05:33:56.972Z,2.02
2019-05-19T05:36:39.032Z,2.62
2019-05-19T05:39:22.065Z,2.52
2019-05-19T05:42:04.339Z,2.17
2019-05-19T05:44:54.868Z,2.30
2019-05-19T05:47:30.270Z,1.80
2019-05-19T05:50:00.802Z,1.90
2019-05-19T05:52:38.539Z,2.55
2019-05-19T05:55:04.600Z,1.85
2019-05-19T05:57:35.245Z,1.87
2019-05-19T06:00:08.704Z,2.00
2019-05-19T06:02:39.627Z,1.90
2019-05-19T06:05:10.561Z,1.70
2019-05-19T06:07:41.314Z,2.80
2019-05-19T06:10:12.578Z,1.80
2019-05-19T06:12:43.216Z,2.05
2019-05-19T06:15:13.925Z,2.12
2019-05-19T06:17:44.879Z,2.33
2019-05-19T06:20:15.639Z,2.00
2019-05-19T06:22:55.981Z,1.92
2019-05-19T06:25:18.548Z,2.08
2019-05-19T06:27:49.393Z,2.00
2019-05-19T06:30:20.348Z,1.90
2019-05-19T06:32:52.943Z,1.82
2019-05-19T06:35:24.005Z,2.05
2019-05-19T06:37:55.158Z,1.72
2019-05-19T06:40:26.016Z,1.80
2019-05-19T06:42:56.982Z,2.00
2019-05-19T06:45:27.964Z,1.98
2019-05-19T06:47:58.903Z,2.22
2019-05-19T06:50:29.841Z,1.70
2019-05-19T06:53:14.061Z,2.20
2019-05-19T06:56:01.581Z,2.92
2019-05-19T06:58:35.054Z,1.75
2019-05-19T07:01:06.125Z,2.00
2019-05-19T07:03:51.391Z,2.70
2019-05-19T07:06:23.294Z,1.90
2019-05-19T07:08:54.124Z,2.10
2019-05-19T07:11:25.171Z,2.33
2019-05-19T07:13:56.129Z,2.08
2019-05-19T07:16:27.307Z,2.12
2019-05-19T07:19:02.917Z,2.10
2019-05-19T07:21:34.236Z,2.50
2019-05-19T07:24:05.284Z,1.85
2019-05-19T07:26:36.156Z,1.90
2019-05-19T07:29:07.211Z,2.00
2019-05-19T07:31:38.170Z,1.70
2019-05-19T07:34:09.235Z,1.98
2019-05-19T07:36:40.291Z,2.08
2019-05-19T07:39:22.055Z,2.02
2019-05-19T07:41:55.995Z,2.20
2019-05-19T07:44:26.854Z,1.72
2019-05-19T07:46:58.136Z,2.30
2019-05-19T07:49:29.098Z,1.67
2019-05-19T07:52:06.219Z,1.85
2019-05-19T07:54:43.920Z,1.80
2019-05-19T07:57:23.747Z,2.05
2019-05-19T08:00:03.880Z,2.02
2019-05-19T08:02:41.568Z,1.90
2019-05-19T08:05:16.421Z,2.08
2019-05-19T08:07:47.544Z,2.25
2019-05-19T08:10:18.797Z,1.50
2019-05-19T08:12:49.857Z,1.98
2019-05-19T08:15:25.797Z,1.85
2019-05-19T08:17:58.025Z,1.98
2019-05-19T08:20:29.085Z,1.85
2019-05-19T08:22:59.935Z,1.75
2019-05-19T08:25:30.992Z,1.47
2019-05-19T08:28:08.607Z,1.95
2019-05-19T08:30:34.333Z,1.90
2019-05-19T08:33:05.180Z,1.95
2019-05-19T08:35:36.583Z,2.37
2019-05-19T08:38:07.523Z,1.82
2019-05-19T08:40:39.404Z,1.27
2019-05-19T08:43:10.260Z,1.57
2019-05-19T08:45:41.358Z,2.60
2019-05-19T08:48:12.296Z,1.82
2019-05-19T08:50:43.346Z,2.08
2019-05-19T08:53:13.927Z,1.80
2019-05-19T08:55:45.085Z,1.90
2019-05-19T08:58:16.121Z,1.95
2019-05-19T09:00:50.855Z,1.62
2019-05-19T09:03:21.895Z,1.87
2019-05-19T09:05:52.875Z,2.37
2019-05-19T09:08:26.883Z,1.45
2019-05-19T09:10:57.972Z,2.33
2019-05-19T09:13:28.926Z,2.17
2019-05-19T09:15:59.982Z,1.98
2019-05-19T09:18:31.041Z,2.37
2019-05-19T09:21:01.987Z,2.00
2019-05-19T09:23:32.957Z,2.10
2019-05-19T09:26:04.325Z,2.30
2019-05-19T09:28:36.590Z,1.80
2019-05-19T09:31:07.436Z,2.15
2019-05-19T09:33:38.539Z,1.92
2019-05-19T09:36:09.486Z,1.80
2019-05-19T09:38:40.428Z,2.08
2019-05-19T09:41:12.520Z,1.92
2019-05-19T09:43:43.673Z,1.90
2019-05-19T09:46:14.756Z,1.87
2019-05-19T09:48:47.746Z,1.98
2019-05-19T09:51:24.054Z,1.50
2019-05-19T09:53:54.871Z,1.75
2019-05-19T09:56:25.847Z,1.60
2019-05-19T09:58:57.006Z,1.98
2019-05-19T10:01:28.788Z,1.65
2019-05-19T10:03:59.851Z,1.50
2019-05-19T10:06:30.817Z,1.57
2019-05-19T10:09:05.047Z,1.75
2019-05-19T10:11:56.450Z,1.70
2019-05-19T10:14:27.393Z,1.50
2019-05-19T10:16:58.267Z,1.90
2019-05-19T10:19:29.422Z,1.90
2019-05-19T10:22:00.347Z,2.12
2019-05-19T10:24:31.449Z,1.90
2019-05-19T10:27:02.285Z,2.10
2019-05-19T10:29:33.347Z,1.60
2019-05-19T10:32:04.325Z,1.98
2019-05-19T10:34:35.695Z,1.90
2019-05-19T10:37:06.327Z,2.15
2019-05-19T10:39:37.304Z,1.45
2019-05-19T10:42:08.365Z,1.60
2019-05-19T10:44:39.320Z,1.47
2019-05-19T10:47:11.802Z,1.80
2019-05-19T10:49:43.190Z,1.85
2019-05-19T10:52:14.147Z,1.30
2019-05-19T10:54:45.206Z,1.77
2019-05-19T10:57:16.155Z,1.35
2019-05-19T10:59:47.221Z,1.92
2019-05-19T11:02:18.284Z,2.37
2019-05-19T11:04:49.116Z,1.45
2019-05-19T11:07:20.198Z,1.80
2019-05-19T11:09:51.153Z,1.27
2019-05-19T11:12:22.215Z,1.80
2019-05-19T11:14:53.170Z,1.70
2019-05-19T11:17:24.029Z,1.82
2019-05-19T11:19:55.073Z,2.37
2019-05-19T11:22:26.156Z,1.65
2019-05-19T11:24:57.216Z,1.87
2019-05-19T11:27:28.049Z,1.57
2019-05-19T11:30:02.098Z,1.70
2019-05-19T11:32:34.593Z,1.92
2019-05-19T11:35:06.859Z,1.90
2019-05-19T11:37:37.936Z,2.10
2019-05-19T11:40:08.980Z,1.70
2019-05-19T11:42:39.545Z,2.30
2019-05-19T11:45:10.698Z,1.82
2019-05-19T11:47:41.244Z,1.82
2019-05-19T11:50:12.214Z,1.00
2019-05-19T11:52:43.517Z,1.25
2019-05-19T11:55:17.513Z,1.30
2019-05-19T11:57:48.580Z,2.05
2019-05-19T12:00:20.012Z,1.95
2019-05-19T12:02:50.583Z,1.35
2019-05-19T12:05:21.664Z,1.40
2019-05-19T12:07:52.610Z,1.57
2019-05-19T12:10:23.670Z,2.47
2019-05-19T12:12:54.736Z,1.82
2019-05-19T12:15:25.791Z,1.85
2019-05-19T12:17:56.756Z,1.40
2019-05-19T12:20:27.605Z,1.57
2019-05-19T12:22:58.730Z,1.57
2019-05-19T12:25:29.828Z,1.50
2019-05-19T12:28:00.766Z,1.50
2019-05-19T12:30:31.756Z,2.37
2019-05-19T12:33:02.931Z,1.22
2019-05-19T12:35:35.516Z,1.55
2019-05-19T12:38:07.976Z,1.42
2019-05-19T12:40:39.059Z,1.50
2019-05-19T12:43:11.049Z,1.70
2019-05-19T12:45:42.291Z,1.67
2019-05-19T12:48:15.633Z,1.75
2019-05-19T12:50:46.979Z,1.70
2019-05-19T12:53:18.036Z,1.62
2019-05-19T12:55:49.104Z,1.60
2019-05-19T12:58:20.176Z,1.80
2019-05-19T13:00:51.106Z,1.40
2019-05-19T13:03:22.180Z,1.30
2019-05-19T13:05:53.145Z,1.30
2019-05-19T13:08:23.994Z,0.98
2019-05-19T13:10:55.070Z,1.10
2019-05-19T13:13:26.113Z,1.12
2019-05-19T13:15:57.188Z,1.20
2019-05-19T13:18:28.136Z,1.50
2019-05-19T13:20:58.973Z,1.40
2019-05-19T13:23:29.934Z,1.60
2019-05-19T13:26:00.915Z,1.50
2019-05-19T13:28:31.969Z,0.95
2019-05-19T13:31:03.030Z,1.85
2019-05-19T13:33:33.897Z,1.45
2019-05-19T13:36:04.949Z,1.00
2019-05-19T13:38:35.627Z,1.22
2019-05-19T13:41:06.456Z,1.35
2019-05-19T13:43:38.422Z,1.37
2019-05-19T13:46:09.496Z,1.60
2019-05-19T13:48:40.467Z,1.50
2019-05-19T13:51:11.414Z,1.30
2019-05-19T13:53:42.252Z,1.20
2019-05-19T13:56:13.230Z,1.20
2019-05-19T13:58:44.289Z,1.10
2019-05-19T14:01:27.990Z,1.60
2019-05-19T14:03:47.619Z,1.15
2019-05-19T14:06:18.714Z,1.52
2019-05-19T14:08:49.743Z,1.70
2019-05-19T14:11:20.703Z,1.20
2019-05-19T14:13:51.571Z,1.05
2019-05-19T14:16:22.615Z,1.10
2019-05-19T14:18:53.596Z,1.17
2019-05-19T14:21:24.693Z,1.60
2019-05-19T14:23:57.146Z,1.25
2019-05-19T14:26:27.901Z,1.32
2019-05-19T14:28:58.962Z,1.35
2019-05-19T14:31:29.934Z,1.22
2019-05-19T14:34:00.960Z,1.65
2019-05-19T14:36:31.923Z,1.80
2019-05-19T14:39:05.896Z,1.52
2019-05-19T14:41:37.127Z,1.45
2019-05-19T14:44:08.086Z,1.52
2019-05-19T14:46:39.351Z,1.75
2019-05-19T14:49:10.293Z,1.77
2019-05-19T14:51:41.352Z,1.82
2019-05-19T14:54:12.331Z,7.05
2019-05-19T14:56:43.390Z,3.30
2019-05-19T14:59:14.961Z,1.60
2019-05-19T15:01:46.020Z,3.00
2019-05-19T15:04:16.980Z,1.77
2019-05-19T15:06:48.044Z,1.67
2019-05-19T15:09:18.999Z,1.37
2019-05-19T15:11:50.145Z,2.52
2019-05-19T15:14:21.103Z,1.92
2019-05-19T15:16:52.080Z,1.98
2019-05-19T15:19:23.020Z,1.22
2019-05-19T15:21:53.995Z,1.75
2019-05-19T15:24:28.783Z,1.70
2019-05-19T15:26:59.371Z,1.90
2019-05-19T15:29:30.462Z,2.45
2019-05-19T15:32:01.712Z,2.77
2019-05-19T15:34:32.862Z,1.62
2019-05-19T15:37:03.819Z,1.65
2019-05-19T15:39:34.898Z,1.35
2019-05-19T15:42:05.845Z,1.87
2019-05-19T15:44:37.839Z,2.20
2019-05-19T15:47:09.103Z,2.08
2019-05-19T15:49:40.060Z,2.17
2019-05-19T15:52:11.145Z,1.52
2019-05-19T15:54:42.089Z,1.50
2019-05-19T15:57:12.921Z,1.50
2019-05-19T15:59:44.006Z,1.37
2019-05-19T16:02:14.963Z,2.58
2019-05-19T16:04:46.019Z,2.65
2019-05-19T16:07:17.078Z,6.55
2019-05-19T16:09:48.141Z,6.10
2019-05-19T16:12:19.088Z,4.65
2019-05-19T16:14:49.955Z,2.52
2019-05-19T16:17:22.443Z,2.20
2019-05-19T16:19:53.404Z,1.90
2019-05-19T16:22:24.345Z,1.90
2019-05-19T16:24:55.200Z,2.67
2019-05-19T16:27:26.305Z,2.00
2019-05-19T16:29:57.439Z,2.65
2019-05-19T16:32:28.383Z,3.37
2019-05-19T16:34:59.471Z,2.55
2019-05-19T16:37:30.527Z,2.30
2019-05-19T16:40:04.151Z,2.15
2019-05-19T16:42:35.202Z,2.55
2019-05-19T16:45:08.779Z,2.67
2019-05-19T16:47:39.469Z,2.70
2019-05-19T16:50:10.594Z,3.08
2019-05-19T16:52:41.598Z,3.50
2019-05-19T16:55:17.235Z,2.67
2019-05-19T16:57:49.221Z,2.47
2019-05-19T17:00:21.250Z,2.58
2019-05-19T17:02:54.939Z,3.22
2019-05-19T17:05:25.917Z,3.02
2019-05-19T17:07:56.856Z,4.00
2019-05-19T17:10:27.917Z,2.67
2019-05-19T17:12:58.856Z,2.05
2019-05-19T17:15:29.931Z,1.75
2019-05-19T17:18:00.903Z,2.02
2019-05-19T17:20:36.577Z,2.22
2019-05-19T17:23:12.402Z,2.77
2019-05-19T17:25:46.231Z,2.50
2019-05-19T17:28:17.189Z,4.65
2019-05-19T17:30:48.159Z,4.75
2019-05-19T17:33:19.221Z,4.75
2019-05-19T17:35:58.420Z,5.15
2019-05-19T17:38:38.859Z,5.83
2019-05-19T17:41:10.812Z,5.75
2019-05-19T17:43:41.872Z,3.90
2019-05-19T17:46:12.812Z,4.22
2019-05-19T17:48:43.776Z,4.10
2019-05-19T17:51:17.612Z,3.70
2019-05-19T17:53:48.267Z,3.80
2019-05-19T17:56:19.223Z,2.83
2019-05-19T17:58:50.540Z,2.33
2019-05-19T18:01:21.119Z,2.65
2019-05-19T18:03:52.200Z,2.35
2019-05-19T18:06:23.037Z,2.47
2019-05-19T18:08:54.015Z,2.33
2019-05-19T18:11:25.083Z,1.50
2019-05-19T18:13:55.726Z,1.80
2019-05-19T18:16:26.890Z,1.95
2019-05-19T18:42:14.932Z,3.33
2019-05-19T18:44:45.989Z,2.62
2019-05-19T18:47:16.947Z,2.40
2019-05-19T18:49:52.306Z,2.92
2019-05-19T18:52:22.956Z,3.02
2019-05-19T18:54:53.793Z,2.80
2019-05-19T18:57:24.774Z,3.20
2019-05-19T18:59:57.751Z,2.90
2019-05-19T19:02:28.835Z,2.98
2019-05-19T19:04:59.776Z,3.40
2019-05-19T19:07:50.305Z,3.22
2019-05-19T19:12:50.576Z,3.20
2019-05-19T19:15:21.629Z,3.58
2019-05-19T19:17:52.465Z,3.08
2019-05-19T19:20:23.544Z,2.85
2019-05-19T19:22:56.274Z,2.20
2019-05-19T19:25:27.303Z,2.50
2019-05-19T19:27:58.370Z,2.05
2019-05-19T19:30:29.199Z,2.17
2019-05-19T19:33:03.472Z,2.00
2019-05-19T19:35:39.127Z,2.50
2019-05-19T19:38:08.370Z,2.05
2019-05-19T19:40:40.545Z,2.30
2019-05-19T19:43:11.460Z,2.25
2019-05-19T19:45:42.545Z,2.35
2019-05-19T19:48:13.070Z,2.08
2019-05-19T19:50:44.066Z,1.70
2019-05-19T19:53:14.580Z,2.20
2019-05-19T19:55:45.535Z,2.67
2019-05-19T19:58:16.517Z,2.42
2019-05-19T20:00:47.575Z,2.22
2019-05-19T20:03:18.208Z,2.67
2019-05-19T20:05:49.187Z,3.00
2019-05-19T20:08:20.122Z,2.80
2019-05-19T20:10:50.993Z,2.80
2019-05-19T20:13:21.938Z,2.50
2019-05-19T20:15:53.015Z,3.00
2019-05-19T20:18:23.981Z,2.40
2019-05-19T20:20:54.914Z,2.90
2019-05-19T20:23:25.891Z,2.65
2019-05-19T20:25:56.849Z,2.90
2019-05-19T20:28:27.794Z,3.17
2019-05-19T20:30:58.658Z,3.20
2019-05-19T20:33:29.725Z,4.12
2019-05-19T20:36:01.296Z,3.42
2019-05-19T20:38:32.459Z,2.85
2019-05-19T20:41:03.401Z,2.83
2019-05-19T20:43:34.257Z,2.80
2019-05-19T20:46:05.114Z,3.00
2019-05-19T20:48:35.988Z,2.80
2019-05-19T20:51:06.928Z,2.60
2019-05-19T20:53:37.903Z,2.77
2019-05-19T20:56:08.759Z,2.80
2019-05-19T20:58:39.698Z,3.17
2019-05-19T21:01:10.559Z,2.20
2019-05-19T21:03:41.634Z,2.92
2019-05-19T21:06:12.576Z,2.42
2019-05-19T21:08:43.124Z,2.12
2019-05-19T21:11:14.203Z,2.50
2019-05-19T21:13:45.264Z,2.37
2019-05-19T21:16:16.120Z,2.33
2019-05-19T21:18:47.061Z,2.35
2019-05-19T21:21:18.040Z,2.55
2019-05-19T21:23:49.100Z,2.37
2019-05-19T21:26:20.158Z,2.40
2019-05-19T21:28:51.097Z,2.72
2019-05-19T21:31:22.075Z,2.52
2019-05-19T21:33:53.033Z,2.30
2019-05-19T21:36:29.516Z,2.20
2019-05-19T21:39:00.676Z,2.42
2019-05-19T21:41:31.514Z,2.02
2019-05-19T21:44:02.601Z,2.10
2019-05-19T21:46:33.655Z,2.12
2019-05-19T21:49:04.713Z,2.72
2019-05-19T21:51:35.673Z,2.17
2019-05-19T21:54:06.633Z,1.87
2019-05-19T21:56:37.570Z,2.62
2019-05-19T21:59:08.553Z,2.45
2019-05-19T22:01:39.488Z,2.83
2019-05-19T22:04:10.345Z,2.50
2019-05-19T22:06:42.958Z,2.77
2019-05-19T22:09:13.899Z,2.92
2019-05-19T22:11:44.873Z,2.55
2019-05-19T22:14:15.936Z,3.42
2019-05-19T22:16:46.894Z,2.80
2019-05-19T22:19:17.858Z,3.30
2019-05-19T22:21:48.913Z,2.40
2019-05-19T22:24:19.770Z,2.55
2019-05-19T22:26:50.710Z,2.83
2019-05-19T22:29:21.683Z,2.83
2019-05-19T22:31:52.539Z,2.60
2019-05-19T22:34:23.607Z,3.10
2019-05-19T22:36:54.560Z,2.50
2019-05-19T22:39:25.623Z,3.35
2019-05-19T22:41:56.582Z,2.83
2019-05-19T22:44:27.639Z,2.72
2019-05-19T22:46:58.491Z,2.72
2019-05-19T22:49:29.334Z,2.47
2019-05-19T22:52:00.295Z,2.70
2019-05-19T22:54:31.269Z,2.83
2019-05-19T22:57:02.126Z,2.58
2019-05-19T22:59:33.187Z,2.67
2019-05-19T23:02:04.142Z,2.65
2019-05-19T23:04:35.204Z,2.12
2019-05-19T23:07:06.162Z,2.22
2019-05-19T23:09:36.693Z,2.27
2019-05-19T23:12:07.776Z,2.55
2019-05-19T23:14:38.742Z,2.27
2019-05-19T23:17:09.591Z,1.95
2019-05-19T23:19:40.527Z,1.57
2019-05-19T23:22:11.385Z,2.08
2019-05-19T23:24:42.461Z,1.90
2019-05-19T23:27:13.299Z,2.15
2019-05-19T23:29:44.325Z,1.87
2019-05-19T23:32:15.440Z,2.17
2019-05-19T23:34:46.398Z,1.95
2019-05-19T23:37:17.345Z,2.22
2019-05-19T23:39:48.198Z,1.98
2019-05-19T23:42:19.272Z,2.10
2019-05-19T23:44:50.216Z,1.77
2019-05-19T23:47:21.193Z,2.15
2019-05-19T23:49:52.254Z,2.08
2019-05-19T23:52:23.210Z,1.45
2019-05-19T23:54:54.336Z,2.20
2019-05-19T23:57:25.434Z,1.90
2019-05-19T23:59:56.375Z,2.05
